Time;durP1;ratioP1;P1;durP2;ratioP2;P2;SDS_P1;SDS_P2;PMS_P1;PMS_P2;Temp;Humidity;BMP_temperature;BMP_pressure;BME280_temperature;BME280_humidity;BME280_pressure;Samples;Min_cycle;Max_cycle;Signal;HPM_P1;HPM_P2
2021/04/29 00:01:36;;;;;;;12.88;6.90;;;13.60;99.90;;;;;;5013483;28;20101;-73
2021/04/29 00:04:01;;;;;;;9.75;6.65;;;13.40;99.90;;;;;;5013375;28;20049;-73
2021/04/29 00:06:27;;;;;;;11.48;7.55;;;13.30;99.90;;;;;;5013104;28;20021;-72
2021/04/29 00:08:52;;;;;;;10.43;7.57;;;13.10;99.90;;;;;;5013400;28;20033;-72
2021/04/29 00:11:18;;;;;;;12.00;9.07;;;12.90;99.90;;;;;;5011756;28;20054;-72
2021/04/29 00:13:43;;;;;;;12.65;9.15;;;12.80;99.90;;;;;;5011893;28;20044;-72
2021/04/29 00:16:09;;;;;;;10.60;9.35;;;12.70;99.90;;;;;;5011312;28;20018;-73
2021/04/29 00:18:34;;;;;;;10.95;8.50;;;12.60;99.90;;;;;;5011430;28;20267;-73
2021/04/29 00:21:00;;;;;;;11.88;8.32;;;12.60;99.90;;;;;;5015939;28;20026;-73
2021/04/29 00:23:27;;;;;;;13.20;9.02;;;12.40;99.90;;;;;;5013014;28;20484;-73
2021/04/29 00:25:53;;;;;;;11.85;8.80;;;12.40;99.90;;;;;;5013163;28;20531;-73
2021/04/29 00:28:19;;;;;;;11.52;9.20;;;12.30;99.90;;;;;;5011986;28;20091;-73
2021/04/29 00:30:46;;;;;;;14.48;10.25;;;12.30;99.90;;;;;;5013175;28;20547;-73
2021/04/29 00:33:11;;;;;;;13.23;10.60;;;12.10;99.90;;;;;;5012837;28;20018;-71
2021/04/29 00:35:37;;;;;;;17.08;10.27;;;11.90;99.90;;;;;;5011654;28;20078;-72
2021/04/29 00:38:03;;;;;;;13.20;10.00;;;12.00;99.90;;;;;;5010440;28;20381;-72
2021/04/29 00:40:28;;;;;;;14.93;10.70;;;12.10;99.90;;;;;;5012748;28;20045;-72
2021/04/29 00:42:54;;;;;;;13.25;9.80;;;12.00;99.90;;;;;;5012720;28;20524;-73
2021/04/29 00:45:20;;;;;;;14.00;10.13;;;11.90;99.90;;;;;;5012681;28;20022;-73
2021/04/29 00:47:49;;;;;;;11.98;10.32;;;11.90;99.90;;;;;;5012807;28;20500;-72
2021/04/29 00:50:15;;;;;;;12.50;9.75;;;11.90;99.90;;;;;;5012800;28;20104;-72
2021/04/29 00:52:40;;;;;;;13.02;10.40;;;11.90;99.90;;;;;;5012731;28;20041;-73
2021/04/29 00:55:07;;;;;;;11.60;9.80;;;11.90;99.90;;;;;;5012469;28;20080;-73
2021/04/29 00:57:34;;;;;;;12.18;9.68;;;11.70;99.90;;;;;;5012763;28;20080;-73
2021/04/29 01:00:01;;;;;;;12.07;10.23;;;11.70;99.90;;;;;;5011359;28;20032;-72
2021/04/29 01:02:28;;;;;;;11.95;10.73;;;11.30;99.90;;;;;;5011222;28;20525;-73
2021/04/29 01:05:03;;;;;;;11.50;10.07;;;11.30;99.90;;;;;;5012443;28;20538;-73
2021/04/29 01:07:35;;;;;;;12.90;11.07;;;11.50;99.90;;;;;;5012363;28;20062;-73
2021/04/29 01:10:12;;;;;;;15.18;11.15;;;11.80;99.90;;;;;;5005024;28;20036;-73
2021/04/29 01:13:06;;;;;;;13.07;10.82;;;11.70;99.90;;;;;;5011281;28;20048;-74
2021/04/29 01:15:35;;;;;;;14.93;12.02;;;11.70;99.90;;;;;;4997962;28;20090;-74
2021/04/29 01:18:01;;;;;;;12.38;10.60;;;11.60;99.90;;;;;;5013097;28;20061;-74
2021/04/29 01:20:40;;;;;;;12.32;10.85;;;11.60;99.90;;;;;;5026451;28;20041;-73
2021/04/29 01:23:34;;;;;;;15.45;11.77;;;11.60;99.90;;;;;;5013580;28;20095;-74
2021/04/29 01:26:13;;;;;;;17.17;12.57;;;11.70;99.90;;;;;;5002063;28;20396;-73
2021/04/29 01:28:39;;;;;;;16.95;10.63;;;11.40;99.90;;;;;;5012374;28;20030;-75
2021/04/29 01:31:06;;;;;;;11.80;10.60;;;11.30;99.90;;;;;;5012294;28;20485;-74
2021/04/29 01:33:33;;;;;;;12.13;10.45;;;11.30;99.90;;;;;;5010819;28;20113;-73
2021/04/29 01:35:59;;;;;;;11.85;10.52;;;11.50;99.90;;;;;;5012213;28;20108;-73
2021/04/29 01:38:25;;;;;;;13.00;11.60;;;11.50;99.90;;;;;;5012033;28;20452;-73
2021/04/29 01:40:52;;;;;;;12.15;10.82;;;11.70;99.90;;;;;;5011985;28;20056;-72
2021/04/29 01:43:18;;;;;;;11.60;10.50;;;11.60;99.90;;;;;;4999056;28;20113;-73
2021/04/29 01:45:43;;;;;;;13.15;10.70;;;11.40;99.90;;;;;;5011202;28;20116;-73
2021/04/29 01:48:10;;;;;;;14.00;11.88;;;11.30;99.90;;;;;;5012059;28;20030;-73
2021/04/29 01:50:36;;;;;;;12.70;11.32;;;11.50;99.90;;;;;;5012819;28;20056;-73
2021/04/29 01:53:05;;;;;;;15.23;12.43;;;11.50;99.90;;;;;;5011939;28;20145;-75
2021/04/29 01:55:32;;;;;;;15.05;12.55;;;11.50;99.90;;;;;;5011885;28;20057;-74
2021/04/29 01:57:58;;;;;;;12.85;11.15;;;11.50;99.90;;;;;;5011938;28;20030;-75
2021/04/29 02:00:23;;;;;;;13.75;12.35;;;11.60;99.90;;;;;;5010650;28;20171;-74
2021/04/29 02:02:50;;;;;;;12.60;11.20;;;11.70;99.90;;;;;;5011890;28;20026;-73
2021/04/29 02:05:16;;;;;;;14.88;12.00;;;11.50;99.90;;;;;;5011609;28;20029;-75
2021/04/29 02:07:42;;;;;;;13.40;11.98;;;11.60;99.90;;;;;;5011780;28;20030;-74
2021/04/29 02:10:08;;;;;;;16.17;11.73;;;11.40;99.90;;;;;;5011898;28;20030;-75
2021/04/29 02:12:38;;;;;;;13.80;12.32;;;11.60;99.90;;;;;;5010480;28;20061;-74
2021/04/29 02:15:08;;;;;;;14.00;11.63;;;11.60;99.90;;;;;;5010436;28;20056;-74
2021/04/29 02:17:52;;;;;;;14.73;12.32;;;11.70;99.90;;;;;;5010781;28;20432;-74
2021/04/29 02:20:22;;;;;;;13.25;11.85;;;11.60;99.90;;;;;;5025371;28;20022;-75
2021/04/29 02:22:48;;;;;;;15.35;11.60;;;11.50;99.90;;;;;;5015678;28;20022;-74
2021/04/29 02:25:15;;;;;;;14.88;12.32;;;11.40;99.90;;;;;;5015406;28;20038;-75
2021/04/29 02:27:41;;;;;;;13.80;11.88;;;11.40;99.90;;;;;;5007784;28;20038;-75
2021/04/29 02:30:10;;;;;;;14.40;12.88;;;11.50;99.90;;;;;;5009087;28;20026;-75
2021/04/29 02:32:37;;;;;;;13.23;11.60;;;11.60;99.90;;;;;;5004106;28;20026;-75
2021/04/29 02:35:06;;;;;;;15.30;13.32;;;11.50;99.90;;;;;;5000927;28;20050;-74
2021/04/29 02:37:31;;;;;;;14.10;12.20;;;11.40;99.90;;;;;;5004967;28;20061;-74
2021/04/29 02:39:58;;;;;;;15.00;12.57;;;11.50;99.90;;;;;;5008906;28;20053;-75
2021/04/29 02:42:24;;;;;;;15.68;12.52;;;11.50;99.90;;;;;;5004807;28;20526;-75
2021/04/29 02:44:49;;;;;;;16.42;13.07;;;11.60;99.90;;;;;;5002130;28;20065;-74
2021/04/29 02:47:16;;;;;;;14.30;12.73;;;11.60;99.90;;;;;;5005836;28;20022;-73
2021/04/29 02:49:42;;;;;;;14.02;12.68;;;11.60;99.90;;;;;;5011490;28;20061;-73
2021/04/29 02:52:10;;;;;;;14.27;12.63;;;11.50;99.90;;;;;;5015078;28;20449;-74
2021/04/29 02:54:35;;;;;;;14.88;13.40;;;11.60;99.90;;;;;;5014849;28;20058;-73
2021/04/29 02:57:01;;;;;;;15.20;13.05;;;11.50;99.90;;;;;;5015074;28;20057;-74
2021/04/29 02:59:26;;;;;;;15.15;13.48;;;11.30;99.90;;;;;;5015016;28;20037;-73
2021/04/29 03:01:52;;;;;;;14.07;12.68;;;11.40;99.90;;;;;;5014930;28;20083;-74
2021/04/29 03:04:18;;;;;;;16.17;14.13;;;11.50;99.90;;;;;;5014577;28;20026;-75
2021/04/29 03:06:43;;;;;;;15.55;13.95;;;11.50;99.90;;;;;;5013587;28;20058;-74
2021/04/29 03:09:09;;;;;;;16.85;14.02;;;11.50;99.90;;;;;;5014733;28;20555;-74
2021/04/29 03:11:35;;;;;;;14.35;12.98;;;11.40;99.90;;;;;;5014665;28;20491;-73
2021/04/29 03:14:01;;;;;;;15.00;13.50;;;11.40;99.90;;;;;;5014564;28;20037;-74
2021/04/29 03:16:27;;;;;;;16.63;14.43;;;11.50;99.90;;;;;;5014617;28;20022;-73
2021/04/29 03:18:52;;;;;;;16.70;13.63;;;11.60;99.90;;;;;;5016649;28;20392;-73
2021/04/29 03:21:17;;;;;;;15.73;13.65;;;11.60;99.90;;;;;;5024089;28;20024;-72
2021/04/29 03:23:43;;;;;;;15.32;13.88;;;11.70;99.90;;;;;;5014185;28;20439;-73
2021/04/29 03:26:09;;;;;;;16.13;14.52;;;11.70;99.90;;;;;;5009191;28;20030;-72
2021/04/29 03:28:34;;;;;;;16.40;14.50;;;11.60;99.90;;;;;;5008558;28;20030;-73
2021/04/29 03:31:00;;;;;;;16.60;13.88;;;11.50;99.90;;;;;;5014342;28;20021;-73
2021/04/29 03:33:25;;;;;;;15.52;13.93;;;11.50;99.90;;;;;;5012629;28;20029;-73
2021/04/29 03:35:51;;;;;;;17.40;14.27;;;11.40;99.90;;;;;;5014210;28;20062;-72
2021/04/29 03:38:16;;;;;;;15.65;14.05;;;11.50;99.90;;;;;;5012897;28;20395;-73
2021/04/29 03:40:42;;;;;;;15.18;13.57;;;11.50;99.90;;;;;;5014052;28;20400;-72
2021/04/29 03:43:08;;;;;;;18.25;14.93;;;11.50;99.90;;;;;;5014021;28;20029;-73
2021/04/29 03:45:34;;;;;;;17.52;15.35;;;11.50;99.90;;;;;;5012576;28;20629;-73
2021/04/29 03:48:01;;;;;;;15.40;13.77;;;11.50;99.90;;;;;;5013880;28;20033;-73
2021/04/29 03:50:27;;;;;;;15.90;14.30;;;11.50;99.90;;;;;;5012801;28;20076;-74
2021/04/29 03:52:52;;;;;;;17.40;14.98;;;11.40;99.90;;;;;;5014793;28;20034;-74
2021/04/29 03:55:18;;;;;;;16.48;13.80;;;11.50;99.90;;;;;;5013948;28;20014;-74
2021/04/29 03:57:45;;;;;;;15.68;14.05;;;11.40;99.90;;;;;;5014209;28;20037;-74
2021/04/29 04:00:11;;;;;;;16.77;15.18;;;11.40;99.90;;;;;;5012782;28;20117;-74
2021/04/29 04:02:36;;;;;;;18.88;15.52;;;11.40;99.90;;;;;;5012701;28;20029;-74
2021/04/29 04:05:04;;;;;;;16.35;14.65;;;11.50;99.90;;;;;;5013700;28;20099;-74
2021/04/29 04:07:29;;;;;;;16.25;14.57;;;11.40;99.90;;;;;;5012361;28;20033;-75
2021/04/29 04:09:55;;;;;;;17.55;15.75;;;11.20;99.90;;;;;;5013729;28;20026;-72
2021/04/29 04:12:20;;;;;;;20.58;15.50;;;11.30;99.90;;;;;;5013438;28;20026;-72
2021/04/29 04:14:46;;;;;;;17.80;15.82;;;11.40;99.90;;;;;;5013384;28;20627;-72
2021/04/29 04:17:11;;;;;;;18.05;14.57;;;11.40;99.90;;;;;;5012238;28;20030;-72
2021/04/29 04:19:37;;;;;;;17.75;15.15;;;11.50;99.90;;;;;;5013397;28;20022;-73
2021/04/29 04:22:02;;;;;;;17.17;14.85;;;11.30;99.90;;;;;;5019947;28;20488;-73
2021/04/29 04:24:28;;;;;;;17.25;15.10;;;11.20;99.90;;;;;;5014092;28;20034;-73
2021/04/29 04:26:53;;;;;;;16.92;14.55;;;11.40;99.90;;;;;;5012822;28;20030;-74
2021/04/29 04:29:19;;;;;;;18.10;15.18;;;11.10;99.90;;;;;;5013604;28;20030;-75
2021/04/29 04:31:45;;;;;;;18.60;16.63;;;11.10;99.90;;;;;;5013511;28;20042;-75
2021/04/29 04:34:10;;;;;;;17.23;15.43;;;11.10;99.90;;;;;;5015112;28;20668;-74
2021/04/29 04:36:35;;;;;;;16.88;14.95;;;11.10;99.90;;;;;;5013107;28;20037;-75
2021/04/29 04:39:02;;;;;;;19.90;17.92;;;11.20;99.90;;;;;;5011836;28;20116;-75
2021/04/29 04:41:28;;;;;;;22.23;17.75;;;11.30;99.90;;;;;;4999719;28;20061;-75
2021/04/29 04:43:54;;;;;;;16.85;15.07;;;11.30;99.90;;;;;;5011167;28;20037;-75
2021/04/29 04:46:19;;;;;;;18.33;16.42;;;11.30;99.90;;;;;;5011713;28;20026;-75
2021/04/29 04:48:45;;;;;;;18.33;16.48;;;11.30;99.90;;;;;;5012900;28;20033;-74
2021/04/29 04:51:10;;;;;;;18.08;15.82;;;11.30;99.90;;;;;;5012917;28;20022;-74
2021/04/29 04:53:36;;;;;;;17.55;15.73;;;11.30;99.90;;;;;;5012639;28;20026;-74
2021/04/29 04:56:02;;;;;;;17.40;15.45;;;11.40;99.90;;;;;;5012845;28;20026;-76
2021/04/29 04:58:27;;;;;;;17.75;15.75;;;11.50;99.90;;;;;;5011600;28;20542;-76
2021/04/29 05:00:53;;;;;;;17.17;15.48;;;11.60;99.90;;;;;;4999983;28;20034;-75
2021/04/29 05:03:18;;;;;;;20.45;15.55;;;11.40;99.90;;;;;;5014844;28;20030;-74
2021/04/29 05:05:45;;;;;;;17.50;15.13;;;11.40;99.90;;;;;;5013720;28;20125;-73
2021/04/29 05:08:11;;;;;;;16.88;15.18;;;11.40;99.90;;;;;;5012763;28;20034;-74
2021/04/29 05:10:37;;;;;;;17.00;15.23;;;11.30;99.90;;;;;;5012316;28;20508;-73
2021/04/29 05:13:04;;;;;;;17.27;15.30;;;10.90;99.90;;;;;;5013313;28;20018;-73
2021/04/29 05:15:31;;;;;;;18.17;15.57;;;11.00;99.90;;;;;;5012407;28;20547;-74
2021/04/29 05:17:57;;;;;;;18.08;15.55;;;11.10;99.90;;;;;;5011328;28;20511;-73
2021/04/29 05:20:23;;;;;;;18.58;16.77;;;11.20;99.90;;;;;;5011473;28;20037;-73
2021/04/29 05:22:50;;;;;;;19.05;15.73;;;11.20;99.90;;;;;;5011709;28;20045;-74
2021/04/29 05:25:16;;;;;;;17.52;15.68;;;11.10;99.90;;;;;;5012281;28;20093;-74
2021/04/29 05:27:41;;;;;;;20.23;15.68;;;11.00;99.90;;;;;;5015342;28;20102;-71
2021/04/29 05:30:08;;;;;;;20.25;15.63;;;11.10;99.90;;;;;;5025810;28;20030;-73
2021/04/29 05:32:33;;;;;;;19.42;16.23;;;11.10;99.90;;;;;;5012225;28;20041;-73
2021/04/29 05:34:59;;;;;;;18.45;16.48;;;11.20;99.90;;;;;;5011927;28;20026;-68
2021/04/29 05:37:25;;;;;;;17.45;15.25;;;11.10;99.90;;;;;;5012292;28;20022;-73
2021/04/29 05:39:51;;;;;;;18.20;16.30;;;11.20;99.90;;;;;;5011338;28;20029;-73
2021/04/29 05:42:17;;;;;;;19.63;16.30;;;11.10;99.90;;;;;;5004323;28;20589;-73
2021/04/29 05:44:42;;;;;;;18.00;15.95;;;11.10;99.90;;;;;;5005828;28;20106;-74
2021/04/29 05:47:08;;;;;;;19.63;15.95;;;11.20;99.90;;;;;;5000515;28;20021;-73
2021/04/29 05:49:33;;;;;;;21.20;15.93;;;11.20;99.90;;;;;;5012246;28;20116;-74
2021/04/29 05:51:59;;;;;;;21.27;16.30;;;11.10;99.90;;;;;;5013029;28;20026;-73
2021/04/29 05:54:25;;;;;;;18.52;16.52;;;11.10;99.90;;;;;;5013028;28;20061;-73
2021/04/29 05:56:50;;;;;;;18.77;16.88;;;11.10;99.90;;;;;;5011572;28;20033;-73
2021/04/29 05:59:16;;;;;;;17.40;15.07;;;11.10;99.90;;;;;;5010803;28;20033;-73
2021/04/29 06:01:42;;;;;;;16.33;14.32;;;11.10;99.90;;;;;;5012375;28;20101;-73
2021/04/29 06:04:08;;;;;;;18.23;16.23;;;11.20;99.90;;;;;;5011989;28;20443;-73
2021/04/29 06:06:33;;;;;;;17.38;15.38;;;11.20;99.90;;;;;;5012020;28;20062;-73
2021/04/29 06:08:59;;;;;;;18.13;15.07;;;11.20;99.90;;;;;;5011824;28;20038;-74
2021/04/29 06:11:24;;;;;;;16.58;14.30;;;11.20;99.90;;;;;;5012067;28;20049;-75
2021/04/29 06:13:50;;;;;;;14.23;12.73;;;11.40;99.90;;;;;;5012032;28;20025;-74
2021/04/29 06:16:15;;;;;;;14.35;12.73;;;11.20;99.90;;;;;;5012633;28;20030;-75
2021/04/29 06:18:42;;;;;;;13.00;11.70;;;11.40;99.90;;;;;;5012545;28;20033;-74
2021/04/29 06:21:07;;;;;;;14.32;11.80;;;11.40;99.90;;;;;;5024766;28;20115;-74
2021/04/29 06:23:33;;;;;;;13.65;11.55;;;11.30;99.90;;;;;;5011984;28;20495;-74
2021/04/29 06:26:00;;;;;;;14.70;12.13;;;11.30;99.90;;;;;;5012407;28;20050;-74
2021/04/29 06:28:26;;;;;;;13.95;12.50;;;11.40;99.90;;;;;;5010540;28;20117;-74
2021/04/29 06:30:53;;;;;;;13.27;11.45;;;11.40;99.90;;;;;;5011957;28;20094;-73
2021/04/29 06:33:20;;;;;;;12.90;11.50;;;11.40;99.90;;;;;;5010367;28;20057;-73
2021/04/29 06:35:45;;;;;;;13.93;12.43;;;11.40;99.90;;;;;;5011717;28;20018;-73
2021/04/29 06:38:11;;;;;;;12.60;11.20;;;11.40;99.90;;;;;;5010488;28;20547;-73
2021/04/29 06:40:36;;;;;;;11.98;10.77;;;11.60;99.90;;;;;;5004728;28;20519;-73
2021/04/29 06:43:02;;;;;;;11.65;10.45;;;11.60;99.90;;;;;;5004433;28;20041;-72
2021/04/29 06:45:27;;;;;;;10.02;9.02;;;11.60;99.90;;;;;;5004194;28;20022;-73
2021/04/29 06:47:54;;;;;;;9.88;8.80;;;11.70;99.90;;;;;;5005291;28;20534;-72
2021/04/29 06:50:19;;;;;;;9.40;8.48;;;11.70;99.90;;;;;;5012216;28;20018;-73
2021/04/29 06:52:45;;;;;;;10.40;8.45;;;11.80;99.90;;;;;;5010783;28;20076;-72
2021/04/29 06:55:12;;;;;;;8.60;7.50;;;11.70;99.90;;;;;;5005217;28;20038;-72
2021/04/29 06:57:38;;;;;;;8.93;8.02;;;11.70;99.90;;;;;;5004266;28;20054;-73
2021/04/29 07:00:05;;;;;;;9.43;8.52;;;11.70;99.90;;;;;;5010736;28;20408;-72
2021/04/29 07:02:31;;;;;;;9.55;7.75;;;11.90;99.90;;;;;;5011246;28;20480;-73
2021/04/29 07:04:56;;;;;;;9.30;8.13;;;11.90;99.90;;;;;;5011147;28;20034;-73
2021/04/29 07:07:22;;;;;;;9.60;7.97;;;12.00;99.90;;;;;;5013067;28;20542;-73
2021/04/29 07:09:47;;;;;;;9.43;7.05;;;12.00;99.90;;;;;;5013832;28;20025;-73
2021/04/29 07:12:13;;;;;;;11.63;7.80;;;12.00;99.90;;;;;;5013468;28;20026;-73
2021/04/29 07:14:39;;;;;;;10.75;7.85;;;12.20;99.90;;;;;;5014689;28;20451;-74
2021/04/29 07:17:04;;;;;;;8.80;7.00;;;12.30;99.90;;;;;;5014926;28;20026;-73
2021/04/29 07:19:30;;;;;;;7.90;6.63;;;12.30;99.90;;;;;;5022522;28;20030;-74
2021/04/29 07:21:55;;;;;;;9.75;7.10;;;12.30;99.90;;;;;;5020919;28;20517;-73
2021/04/29 07:24:21;;;;;;;7.60;6.65;;;12.40;99.90;;;;;;5015138;28;20025;-73
2021/04/29 07:26:46;;;;;;;8.38;6.47;;;12.40;99.90;;;;;;5016304;28;20033;-72
2021/04/29 07:29:12;;;;;;;7.03;6.32;;;12.60;99.90;;;;;;5014800;28;20048;-73
2021/04/29 07:31:38;;;;;;;8.20;6.68;;;12.70;99.90;;;;;;5015765;28;20037;-72
2021/04/29 07:34:04;;;;;;;7.82;6.93;;;12.70;99.90;;;;;;5013974;28;20056;-73
2021/04/29 07:36:29;;;;;;;7.22;6.50;;;12.80;99.90;;;;;;5015658;28;20064;-73
2021/04/29 07:38:55;;;;;;;8.25;6.57;;;13.20;99.90;;;;;;5015671;28;20494;-73
2021/04/29 07:41:24;;;;;;;8.98;6.80;;;13.00;99.90;;;;;;5014725;28;20030;-73
2021/04/29 07:43:50;;;;;;;7.75;6.18;;;12.90;99.90;;;;;;5002983;28;20030;-73
2021/04/29 07:46:16;;;;;;;7.97;6.05;;;12.90;99.90;;;;;;5014064;28;20071;-73
2021/04/29 07:48:41;;;;;;;7.68;6.20;;;12.90;99.90;;;;;;5015041;28;20037;-73
2021/04/29 07:51:07;;;;;;;8.70;6.47;;;12.80;99.90;;;;;;5015345;28;20087;-73
2021/04/29 07:53:32;;;;;;;10.15;6.70;;;12.70;99.90;;;;;;5015012;28;20084;-73
2021/04/29 07:55:59;;;;;;;8.88;5.88;;;12.80;99.90;;;;;;5015183;28;20081;-72
2021/04/29 07:58:25;;;;;;;7.63;5.78;;;12.80;99.90;;;;;;5001925;28;20036;-73
2021/04/29 08:00:51;;;;;;;10.15;6.25;;;12.90;99.90;;;;;;5015002;28;20030;-73
2021/04/29 08:03:17;;;;;;;8.30;6.82;;;12.70;99.90;;;;;;5014715;28;20108;-72
2021/04/29 08:05:42;;;;;;;7.57;6.80;;;12.80;99.90;;;;;;5014092;28;20018;-73
2021/04/29 08:08:09;;;;;;;9.52;6.75;;;13.00;99.90;;;;;;5013536;28;20022;-73
2021/04/29 08:10:35;;;;;;;9.25;6.55;;;13.10;99.90;;;;;;5001777;28;20089;-73
2021/04/29 08:13:00;;;;;;;8.15;7.03;;;13.30;99.90;;;;;;5001713;28;20018;-73
2021/04/29 08:15:26;;;;;;;7.43;5.45;;;13.60;99.90;;;;;;5013402;28;20022;-73
2021/04/29 08:17:52;;;;;;;7.95;6.40;;;13.70;99.90;;;;;;5014297;28;20018;-73
2021/04/29 08:20:17;;;;;;;11.75;6.47;;;13.50;99.90;;;;;;5014091;28;20026;-73
2021/04/29 08:22:43;;;;;;;8.30;6.63;;;13.50;99.90;;;;;;5014563;28;20503;-72
2021/04/29 08:25:09;;;;;;;7.95;5.68;;;13.60;99.90;;;;;;5014041;28;20030;-73
2021/04/29 08:27:35;;;;;;;8.88;5.82;;;13.60;99.90;;;;;;5012909;28;20491;-73
2021/04/29 08:30:00;;;;;;;7.13;6.28;;;13.70;99.90;;;;;;5012364;28;20021;-74
2021/04/29 08:32:26;;;;;;;7.82;6.30;;;13.50;99.90;;;;;;5000133;28;20025;-74
2021/04/29 08:34:51;;;;;;;6.20;5.60;;;13.50;99.90;;;;;;5013603;28;20025;-73
2021/04/29 08:37:17;;;;;;;7.10;5.50;;;13.40;99.90;;;;;;5014755;28;20076;-74
2021/04/29 08:39:47;;;;;;;9.18;5.93;;;13.30;99.90;;;;;;5014700;28;20033;-74
2021/04/29 08:42:14;;;;;;;7.75;5.72;;;13.30;99.90;;;;;;5013919;28;20084;-73
2021/04/29 08:44:40;;;;;;;6.72;5.10;;;13.50;99.90;;;;;;5012661;28;20033;-73
2021/04/29 08:47:06;;;;;;;7.30;5.80;;;13.40;99.90;;;;;;5013802;28;20105;-73
2021/04/29 08:49:32;;;;;;;7.90;6.00;;;13.60;99.90;;;;;;5013428;28;20022;-73
2021/04/29 08:51:57;;;;;;;7.95;6.40;;;13.80;99.90;;;;;;5013373;28;20026;-73
2021/04/29 08:54:23;;;;;;;8.88;5.80;;;13.80;99.90;;;;;;5011239;28;20072;-73
2021/04/29 08:56:50;;;;;;;7.47;6.00;;;13.70;99.90;;;;;;5002343;28;20489;-73
2021/04/29 08:59:15;;;;;;;9.80;6.05;;;13.70;99.90;;;;;;5000878;28;20447;-73
2021/04/29 09:01:43;;;;;;;12.25;7.63;;;13.50;99.90;;;;;;5014158;28;20030;-73
2021/04/29 09:04:12;;;;;;;8.10;5.78;;;13.50;99.90;;;;;;5011774;28;20044;-74
2021/04/29 09:06:39;;;;;;;6.03;4.90;;;13.60;99.90;;;;;;5013163;28;20668;-73
2021/04/29 09:09:05;;;;;;;5.78;5.15;;;13.50;99.90;;;;;;5011565;28;20026;-73
2021/04/29 09:11:30;;;;;;;7.10;5.13;;;13.60;99.90;;;;;;5013259;28;20388;-73
2021/04/29 09:14:02;;;;;;;6.13;4.78;;;13.80;99.90;;;;;;4998616;28;20025;-74
2021/04/29 09:16:43;;;;;;;4.95;4.50;;;14.20;99.90;;;;;;5013446;28;20026;-74
2021/04/29 09:19:25;;;;;;;5.45;4.40;;;13.80;99.90;;;;;;5016982;28;20410;-73
2021/04/29 09:21:51;;;;;;;6.15;4.40;;;13.90;99.90;;;;;;5017989;28;20030;-73
2021/04/29 09:24:17;;;;;;;4.97;4.15;;;13.90;99.90;;;;;;5011069;28;20127;-73
2021/04/29 09:26:43;;;;;;;6.13;4.55;;;14.10;99.90;;;;;;4999599;28;20485;-73
2021/04/29 09:29:16;;;;;;;5.63;4.22;;;14.00;99.90;;;;;;5011440;28;20116;-74
2021/04/29 09:31:44;;;;;;;5.75;4.40;;;14.20;99.90;;;;;;5013550;28;20022;-72
2021/04/29 09:34:11;;;;;;;5.88;4.20;;;14.20;99.90;;;;;;5011697;28;20729;-73
2021/04/29 09:36:41;;;;;;;5.10;4.60;;;13.90;99.90;;;;;;4999471;28;20152;-73
2021/04/29 09:39:16;;;;;;;5.70;4.25;;;14.20;99.90;;;;;;5011159;28;20384;-74
2021/04/29 09:41:46;;;;;;;4.00;3.60;;;14.60;99.90;;;;;;5010751;28;20191;-73
2021/04/29 09:44:16;;;;;;;4.28;3.88;;;14.70;99.90;;;;;;5012006;28;20084;-73
2021/04/29 09:46:52;;;;;;;4.70;3.38;;;15.30;99.90;;;;;;5010271;28;20029;-73
2021/04/29 09:49:24;;;;;;;3.95;3.00;;;15.30;99.90;;;;;;5011886;28;20026;-73
2021/04/29 09:51:54;;;;;;;3.63;2.88;;;15.20;99.90;;;;;;5012558;28;20432;-74
2021/04/29 09:54:28;;;;;;;3.72;2.90;;;15.50;99.90;;;;;;5030707;23;20521;-73
2021/04/29 09:57:05;;;;;;;4.60;2.90;;;15.60;99.90;;;;;;5031108;28;20022;-74
2021/04/29 09:59:33;;;;;;;4.75;3.13;;;15.10;99.90;;;;;;5027933;28;20037;-73
2021/04/29 10:02:00;;;;;;;4.20;3.15;;;15.00;99.90;;;;;;5022798;28;20422;-72
2021/04/29 10:04:28;;;;;;;3.17;2.85;;;15.40;99.90;;;;;;5027914;28;20236;-72
2021/04/29 10:06:59;;;;;;;5.43;3.80;;;15.70;99.90;;;;;;5022091;28;20032;-73
2021/04/29 10:09:30;;;;;;;3.72;3.25;;;16.70;99.90;;;;;;5033513;28;20390;-73
2021/04/29 10:11:59;;;;;;;5.50;3.55;;;16.10;99.90;;;;;;5018049;28;20022;-73
2021/04/29 10:14:25;;;;;;;4.97;3.65;;;16.30;99.90;;;;;;5003276;28;20033;-74
2021/04/29 10:16:51;;;;;;;4.18;3.78;;;16.80;99.90;;;;;;5018123;28;20026;-73
2021/04/29 10:19:17;;;;;;;6.97;4.07;;;15.90;99.90;;;;;;5017027;28;20025;-72
2021/04/29 10:21:44;;;;;;;7.47;3.13;;;15.50;99.90;;;;;;5020355;28;20030;-71
2021/04/29 10:24:10;;;;;;;3.90;2.92;;;15.00;99.90;;;;;;5016207;28;20029;-72
2021/04/29 10:26:38;;;;;;;3.60;3.20;;;15.00;99.90;;;;;;5011973;28;20033;-72
2021/04/29 10:29:05;;;;;;;4.40;3.13;;;15.50;99.90;;;;;;5020606;28;20505;-71
2021/04/29 10:31:34;;;;;;;6.65;3.85;;;16.40;99.90;;;;;;5006038;28;20030;-72
2021/04/29 10:34:02;;;;;;;3.97;3.60;;;16.70;99.90;;;;;;5007525;28;20021;-72
2021/04/29 10:36:46;;;;;;;6.05;3.40;;;16.00;99.90;;;;;;5011385;28;20038;-72
2021/04/29 10:39:19;;;;;;;3.97;3.40;;;15.30;99.90;;;;;;5011699;28;20405;-72
2021/04/29 10:42:05;;;;;;;4.78;3.40;;;15.90;99.90;;;;;;5016261;28;20104;-72
2021/04/29 10:44:41;;;;;;;4.97;3.17;;;16.30;99.90;;;;;;5016940;28;20113;-72
2021/04/29 10:47:06;;;;;;;5.43;3.35;;;16.30;99.90;;;;;;5027053;28;20590;-72
2021/04/29 10:49:34;;;;;;;3.22;2.88;;;16.80;99.90;;;;;;5019376;28;20036;-72
2021/04/29 10:52:01;;;;;;;4.75;3.00;;;17.10;99.90;;;;;;5020900;28;20022;-72
2021/04/29 10:54:27;;;;;;;3.00;2.70;;;17.10;99.90;;;;;;5025025;28;20033;-72
2021/04/29 10:57:11;;;;;;;4.50;2.92;;;17.10;99.90;;;;;;5004338;28;20116;-72
2021/04/29 10:59:47;;;;;;;4.40;3.30;;;17.30;99.90;;;;;;5003697;28;20036;-72
2021/04/29 11:02:32;;;;;;;4.43;3.55;;;17.00;99.90;;;;;;5020093;28;20037;-72
2021/04/29 11:04:58;;;;;;;4.38;3.50;;;17.10;99.90;;;;;;5009865;28;20022;-72
2021/04/29 11:07:26;;;;;;;5.53;3.53;;;16.90;99.90;;;;;;5018356;28;20032;-71
2021/04/29 11:10:01;;;;;;;4.97;3.30;;;16.60;99.90;;;;;;4998743;28;20041;-73
2021/04/29 11:13:00;;;;;;;6.53;4.07;;;16.40;99.90;;;;;;5004750;28;20083;-72
2021/04/29 11:15:33;;;;;;;4.05;3.60;;;17.50;99.90;;;;;;4975446;28;20033;-72
2021/04/29 11:18:07;;;;;;;4.63;3.28;;;17.10;99.90;;;;;;5018969;28;20026;-72
2021/04/29 11:20:47;;;;;;;7.75;3.72;;;17.60;99.90;;;;;;5016809;28;20022;-72
2021/04/29 11:23:15;;;;;;;5.78;3.95;;;17.80;99.90;;;;;;5016765;28;20540;-72
2021/04/29 11:25:41;;;;;;;6.38;3.70;;;17.30;99.90;;;;;;5019075;28;20540;-72
2021/04/29 11:28:07;;;;;;;5.88;3.47;;;17.50;99.90;;;;;;5014474;28;20092;-72
2021/04/29 11:30:33;;;;;;;6.55;3.83;;;17.80;99.90;;;;;;5032328;28;20017;-72
2021/04/29 11:33:07;;;;;;;4.10;3.70;;;18.40;99.90;;;;;;5023066;28;20034;-72
2021/04/29 11:35:35;;;;;;;6.25;3.75;;;18.20;99.90;;;;;;5032809;28;20475;-72
2021/04/29 11:38:03;;;;;;;5.95;3.92;;;18.00;99.90;;;;;;5034456;28;20387;-72
2021/04/29 11:40:30;;;;;;;5.88;4.32;;;17.10;99.90;;;;;;5033969;28;20506;-72
2021/04/29 11:42:57;;;;;;;9.50;3.83;;;16.10;99.90;;;;;;5034059;28;20120;-72
2021/04/29 11:45:24;;;;;;;5.20;3.97;;;16.40;99.90;;;;;;5010196;28;20371;-73
2021/04/29 11:48:03;;;;;;;5.00;3.95;;;16.60;99.90;;;;;;5026992;28;20021;-73
2021/04/29 11:50:36;;;;;;;5.45;4.25;;;16.30;99.90;;;;;;5033968;28;20057;-72
2021/04/29 11:53:26;;;;;;;7.10;4.40;;;16.40;99.90;;;;;;5032677;28;20374;-73
2021/04/29 11:56:00;;;;;;;5.15;4.47;;;16.20;99.90;;;;;;5007559;28;20077;-72
2021/04/29 11:58:26;;;;;;;5.30;4.80;;;16.00;99.90;;;;;;5009055;28;20048;-72
2021/04/29 12:00:54;;;;;;;6.65;4.50;;;15.90;99.90;;;;;;5034355;28;20037;-72
2021/04/29 12:03:21;;;;;;;5.28;4.40;;;15.70;99.90;;;;;;5027180;28;20479;-72
2021/04/29 12:05:49;;;;;;;6.32;4.80;;;15.90;99.90;;;;;;5028313;28;20033;-72
2021/04/29 12:08:24;;;;;;;6.18;4.97;;;15.60;99.90;;;;;;5033962;28;20077;-71
2021/04/29 12:10:57;;;;;;;5.95;4.72;;;15.60;99.90;;;;;;5002651;28;20076;-72
2021/04/29 12:13:29;;;;;;;7.15;5.10;;;15.60;99.90;;;;;;5023773;28;20101;-71
2021/04/29 12:16:00;;;;;;;6.95;5.45;;;15.00;99.90;;;;;;5027253;28;20018;-71
2021/04/29 12:18:25;;;;;;;6.10;5.32;;;14.80;99.90;;;;;;5004160;28;20388;-72
2021/04/29 12:20:52;;;;;;;11.23;7.88;;;14.70;99.90;;;;;;5005644;28;20032;-72
2021/04/29 12:23:17;;;;;;;6.00;5.30;;;14.60;99.90;;;;;;5003638;28;20022;-71
2021/04/29 12:25:58;;;;;;;6.75;5.30;;;14.60;99.90;;;;;;5031753;28;20498;-71
2021/04/29 12:28:30;;;;;;;9.20;5.43;;;14.50;99.90;;;;;;5019682;28;20030;-72
2021/04/29 12:30:56;;;;;;;8.52;6.07;;;14.40;99.90;;;;;;5025253;28;20616;-72
2021/04/29 12:33:21;;;;;;;6.47;4.38;;;14.30;99.90;;;;;;5010348;28;20029;-72
2021/04/29 12:35:48;;;;;;;5.82;3.35;;;14.00;99.90;;;;;;5011975;28;20071;-72
2021/04/29 12:38:16;;;;;;;4.15;3.20;;;13.30;99.90;;;;;;5015375;28;20022;-72